Portada
METAR-TAF:

METAR-TAF

Aeropuertos :

Sedalia, Misuri, Estados Unidos

latitud: 38-42-44N, longitud: 093-10-28W, altitud: 277 m

Observación

El informe se hizo hace 19 minutos, a las 00:53 UTC
Viento 6 kt del sur-suroeste
Temperatura 27°C
Humedad 58%
Presión 1015 hPa
Visibilidad: 16.1 km
Cielo despejado

METAR: KDMO 030053Z AUTO 20006KT 10SM CLR 27/18 A2997 RMK AO2 SLP140 T02670183

Hora: 20:12 (01:12 UTC)


TAF: falta

Observaciones y pronósticos meteorológicos de más de 4000 aeropuertos (mensajes METAR y TAF).

Los puntos amarillos y rojos representan las estaciones disponibles.

Ponga el ratón en el punto deseado para ver el nombre de la estación.

Haga clic para ver las observaciones y los pronósticos meteorológicos.

Para cambiar el mapa : haga clic en los botones verdes con una cruz de color negro para hacer un zoom, en el botón verde con un guión para alejar o en las flechas verdes para mapas adyacentes.


METAR-TAF: